Time;durP1;ratioP1;P1;durP2;ratioP2;P2;SDS_P1;SDS_P2;PMS_P1;PMS_P2;Temp;Humidity;BMP_temperature;BMP_pressure;BME280_temperature;BME280_humidity;BME280_pressure;Samples;Min_cycle;Max_cycle;Signal;HPM_P1;HPM_P2
2021/09/26 00:01:43;;;;;;;22.67;3.78;;;;;;;8.50;100.00;101528.13;5096707;22;20057;-86
2021/09/26 00:06:40;;;;;;;20.08;3.70;;;;;;;8.72;100.00;101558.81;5058416;28;20049;-87
2021/09/26 00:09:05;;;;;;;26.85;3.60;;;;;;;8.74;100.00;101560.31;5010013;28;20017;-87
2021/09/26 00:11:31;;;;;;;16.50;3.60;;;;;;;8.67;100.00;101551.25;5059294;28;20009;-87
2021/09/26 00:13:57;;;;;;;22.85;3.72;;;;;;;8.79;100.00;101566.00;5059253;28;20030;-86
2021/09/26 00:16:23;;;;;;;26.20;3.75;;;;;;;8.84;100.00;101570.84;5042063;28;20053;-87
2021/09/26 00:18:49;;;;;;;32.10;4.43;;;;;;;8.38;100.00;101490.91;5077928;22;20420;-86
2021/09/26 00:21:16;;;;;;;28.67;4.07;;;;;;;8.39;100.00;101510.53;5068697;22;20037;-86
2021/09/26 00:23:42;;;;;;;27.73;4.28;;;;;;;8.87;100.00;101581.25;5058665;28;20036;-86
2021/09/26 00:26:08;;;;;;;25.30;4.15;;;;;;;8.89;100.00;101572.03;5067765;22;20037;-82
2021/09/26 00:28:35;;;;;;;25.58;3.88;;;;;;;8.34;100.00;101505.59;5040998;28;20037;-86
2021/09/26 00:31:04;;;;;;;20.75;4.28;;;;;;;8.33;100.00;101508.47;5058351;28;20430;-86
2021/09/26 00:33:32;;;;;;;21.67;3.63;;;;;;;8.36;100.00;101510.81;5041260;28;20031;-87
2021/09/26 00:35:58;;;;;;;25.15;4.00;;;;;;;8.22;100.00;101512.34;5058422;28;20034;-87
2021/09/26 00:38:24;;;;;;;24.90;3.80;;;;;;;8.29;100.00;101536.63;5058956;28;20021;-87
2021/09/26 00:40:52;;;;;;;25.30;4.28;;;;;;;8.62;100.00;101588.47;5058824;28;20040;-86
2021/09/26 00:43:19;;;;;;;25.65;3.80;;;;;;;8.16;100.00;101518.34;5059011;28;20025;-87
2021/09/26 00:45:45;;;;;;;18.13;3.67;;;;;;;7.98;100.00;101505.09;5058737;28;20026;-87
2021/09/26 00:48:11;;;;;;;27.92;4.05;;;;;;;8.12;100.00;101535.78;5058285;28;20017;-87
2021/09/26 00:50:37;;;;;;;16.80;3.38;;;;;;;7.90;100.00;101508.59;5055655;28;20068;-87
2021/09/26 00:53:04;;;;;;;21.70;3.53;;;;;;;8.36;100.00;101593.97;5037748;28;20025;-87
2021/09/26 00:55:31;;;;;;;21.75;3.67;;;;;;;7.76;100.00;101511.91;5037978;28;20033;-86
2021/09/26 00:57:58;;;;;;;21.52;3.58;;;;;;;8.28;100.00;101607.31;5040912;28;20029;-87
2021/09/26 01:00:24;;;;;;;24.13;4.13;;;;;;;7.90;100.00;101550.63;5041329;28;20002;-87
2021/09/26 01:02:50;;;;;;;18.80;4.13;;;;;;;7.82;100.00;101543.41;5058114;28;20028;-87
2021/09/26 01:05:19;;;;;;;24.90;4.15;;;;;;;7.82;100.00;101553.28;5041302;28;20025;-86
2021/09/26 01:08:06;;;;;;;21.17;3.90;;;;;;;8.16;100.00;101614.84;5057822;28;20040;-86
2021/09/26 01:11:13;;;;;;;19.65;4.10;;;;;;;7.68;100.00;101552.06;5038412;28;20030;-86
2021/09/26 01:14:00;;;;;;;30.85;4.63;;;;;;;8.14;100.00;101614.16;5056903;28;20036;-87
2021/09/26 01:16:38;;;;;;;21.80;3.80;;;;;;;8.05;100.00;101594.56;5057857;28;20026;-86
2021/09/26 01:19:18;;;;;;;31.48;4.70;;;;;;;8.17;100.00;101617.38;5029114;28;20029;-87
2021/09/26 01:21:53;;;;;;;24.95;3.85;;;;;;;7.87;100.00;101569.72;5057634;28;20006;-87
2021/09/26 01:24:37;;;;;;;;;;;;;;;8.15;100.00;101613.19;5058390;28;20013;-87
2021/09/26 01:27:24;;;;;;;26.40;3.90;;;;;;;8.18;100.00;101620.91;5057641;28;19937;-87
2021/09/26 01:30:08;;;;;;;24.42;4.40;;;;;;;8.22;100.00;101619.56;5039681;28;20009;-87
2021/09/26 01:32:36;;;;;;;25.05;3.92;;;;;;;7.71;100.00;101541.00;5040465;28;20033;-87
2021/09/26 01:35:04;;;;;;;25.23;4.15;;;;;;;7.81;100.00;101568.50;5040432;28;20030;-86
2021/09/26 01:37:59;;;;;;;30.05;4.55;;;;;;;7.84;100.00;101572.72;5024208;28;20017;-87
2021/09/26 01:40:54;;;;;;;27.03;4.17;;;;;;;7.82;100.00;101558.66;5057722;28;20029;-86
2021/09/26 01:43:44;;;;;;;23.02;4.03;;;;;;;7.97;100.00;101579.28;5057780;28;20009;-87
2021/09/26 01:46:13;;;;;;;27.05;4.30;;;;;;;8.41;100.00;101646.13;5040777;28;20044;-86
2021/09/26 01:48:48;;;;;;;23.92;4.20;;;;;;;7.92;100.00;101570.91;5057847;28;20063;-86
2021/09/26 01:51:15;;;;;;;24.15;4.05;;;;;;;8.13;100.00;101601.78;5057509;28;20056;-86
2021/09/26 01:53:44;;;;;;;24.55;4.55;;;;;;;8.17;100.00;101605.81;5053246;28;20017;-86
2021/09/26 01:56:13;;;;;;;25.88;4.78;;;;;;;7.92;100.00;101565.53;5156394;22;20053;-80
2021/09/26 01:58:39;;;;;;;22.92;4.22;;;;;;;7.91;100.00;101566.56;5058059;28;20028;-86
2021/09/26 02:01:08;;;;;;;26.15;4.13;;;;;;;8.10;100.00;101597.56;5040434;28;20021;-87
2021/09/26 02:03:34;;;;;;;19.83;4.38;;;;;;;8.09;100.00;101598.59;5037911;28;20018;-88
2021/09/26 02:06:02;;;;;;;28.63;4.25;;;;;;;8.23;100.00;101631.97;5038170;28;20030;-87
2021/09/26 02:08:28;;;;;;;24.35;4.20;;;;;;;8.38;100.00;101662.56;5037310;28;20006;-87
2021/09/26 02:10:54;;;;;;;30.75;4.38;;;;;;;7.93;100.00;101585.13;5037711;28;20010;-87
2021/09/26 02:13:22;;;;;;;24.77;4.75;;;;;;;7.87;100.00;101581.25;5038009;28;20026;-87
2021/09/26 02:15:48;;;;;;;23.13;4.32;;;;;;;8.35;100.00;101667.38;5037589;28;20026;-87
2021/09/26 02:18:16;;;;;;;26.70;3.90;;;;;;;8.33;100.00;101666.69;5064775;28;20040;-87
2021/09/26 02:20:43;;;;;;;20.38;3.95;;;;;;;7.96;100.00;101608.94;5077506;28;20064;-87
2021/09/26 02:23:09;;;;;;;23.80;3.70;;;;;;;7.82;100.00;101590.81;5059835;28;20016;-87
2021/09/26 02:25:35;;;;;;;15.85;3.80;;;;;;;7.73;100.00;101589.91;5077081;28;20024;-88
2021/09/26 02:28:02;;;;;;;25.77;4.20;;;;;;;7.98;100.00;101642.63;5059989;28;20028;-87
2021/09/26 02:30:28;;;;;;;19.00;3.78;;;;;;;7.67;100.00;101598.59;5060117;28;20040;-87
2021/09/26 02:32:54;;;;;;;18.15;3.28;;;;;;;7.62;100.00;101598.25;5076897;28;20032;-87
2021/09/26 02:35:20;;;;;;;18.55;3.75;;;;;;;7.77;100.00;101642.16;5077432;28;20009;-87
2021/09/26 02:37:46;;;;;;;23.35;4.45;;;;;;;7.60;100.00;101627.03;5072308;28;20067;-87
2021/09/26 02:40:13;;;;;;;17.35;3.88;;;;;;;7.57;100.00;101640.72;5040483;28;20039;-87
2021/09/26 02:42:57;;;;;;;17.27;3.72;;;;;;;7.83;100.00;101691.63;5060938;28;20040;-85
2021/09/26 02:45:40;;;;;;;14.23;2.88;;;;;;;7.73;100.00;101691.72;5060650;28;20069;-87
2021/09/26 02:48:18;;;;;;;21.83;3.35;;;;;;;7.30;100.00;101616.63;5060100;28;20055;-86
2021/09/26 02:50:46;;;;;;;24.33;3.58;;;;;;;7.33;100.00;101620.84;5042992;28;20040;-87
2021/09/26 02:53:14;;;;;;;22.08;3.35;;;;;;;7.52;100.00;101658.13;5059831;28;20005;-86
2021/09/26 02:55:41;;;;;;;19.02;3.03;;;;;;;7.82;100.00;101698.81;5040699;28;20045;-86
2021/09/26 02:58:07;;;;;;;13.80;3.08;;;;;;;7.59;100.00;101671.72;5034537;28;20042;-87
2021/09/26 03:00:36;;;;;;;23.33;4.38;;;;;;;7.42;100.00;101652.03;5042686;28;20123;-87
2021/09/26 03:03:15;;;;;;;20.88;3.92;;;;;;;7.35;100.00;101642.97;5042351;28;20026;-86
2021/09/26 03:05:42;;;;;;;22.73;4.63;;;;;;;7.67;100.00;101695.88;5043673;28;20021;-87
2021/09/26 03:08:09;;;;;;;14.90;3.97;;;;;;;7.67;100.00;101695.03;5043453;28;20029;-86
2021/09/26 03:10:35;;;;;;;22.83;3.90;;;;;;;7.67;100.00;101695.03;5059629;28;20020;-86
2021/09/26 03:13:02;;;;;;;22.85;3.70;;;;;;;7.44;100.00;101647.34;5059827;28;20068;-87
2021/09/26 03:15:28;;;;;;;27.55;3.88;;;;;;;7.35;100.00;101637.59;5059075;28;20030;-86
2021/09/26 03:17:54;;;;;;;27.55;4.10;;;;;;;7.78;100.00;101684.03;5041890;28;20084;-85
2021/09/26 03:20:21;;;;;;;24.92;3.67;;;;;;;7.29;100.00;101596.22;5058375;28;20071;-86
2021/09/26 03:22:47;;;;;;;26.48;3.95;;;;;;;7.65;100.00;101636.28;5041100;28;20021;-86
2021/09/26 03:25:15;;;;;;;29.17;4.40;;;;;;;7.77;100.00;101634.13;5058629;28;20025;-84
2021/09/26 03:27:41;;;;;;;29.63;4.20;;;;;;;7.84;100.00;101640.53;5031699;28;20040;-86
2021/09/26 03:30:07;;;;;;;27.98;4.20;;;;;;;7.75;100.00;101614.72;5037958;28;20034;-87
2021/09/26 03:32:33;;;;;;;30.40;5.10;;;;;;;7.91;100.00;101622.84;5046793;28;20060;-86
2021/09/26 03:34:58;;;;;;;24.95;4.53;;;;;;;7.97;100.00;101608.75;5040951;28;20021;-87
2021/09/26 03:37:24;;;;;;;30.10;5.00;;;;;;;8.45;100.00;101681.50;5058449;28;20084;-87
2021/09/26 03:39:51;;;;;;;35.38;5.07;;;;;;;8.51;100.00;101671.94;5041119;28;20366;-87
2021/09/26 03:42:17;;;;;;;34.50;6.05;;;;;;;8.15;100.00;101613.19;5059081;28;20028;-86
2021/09/26 03:44:43;;;;;;;32.75;6.13;;;;;;;8.22;100.00;101615.03;5059279;28;20055;-87
2021/09/26 03:47:09;;;;;;;35.15;5.72;;;;;;;8.60;100.00;101671.81;5060203;28;20014;-86
2021/09/26 03:49:36;;;;;;;31.80;5.30;;;;;;;8.61;100.00;101670.81;5047284;28;20389;-87
2021/09/26 03:52:02;;;;;;;35.05;5.63;;;;;;;8.11;100.00;101604.63;5019799;28;20038;-86
2021/09/26 03:54:28;;;;;;;32.03;5.78;;;;;;;8.61;100.00;101684.22;5045825;28;20008;-86
2021/09/26 03:56:54;;;;;;;31.17;5.70;;;;;;;8.32;100.00;101630.16;5056582;28;20073;-87
2021/09/26 03:59:19;;;;;;;32.42;5.90;;;;;;;8.61;100.00;101680.69;5040311;28;20064;-87
2021/09/26 04:01:46;;;;;;;30.98;5.72;;;;;;;8.61;100.00;101689.59;5040468;28;20021;-85
2021/09/26 04:04:13;;;;;;;29.77;5.60;;;;;;;8.55;100.00;101684.88;5057224;28;20025;-86
2021/09/26 04:06:38;;;;;;;35.38;5.82;;;;;;;8.24;100.00;101631.81;5040454;28;20034;-86
2021/09/26 04:09:06;;;;;;;34.17;5.40;;;;;;;8.36;100.00;101643.06;5057597;28;20033;-86
2021/09/26 04:11:34;;;;;;;26.65;5.47;;;;;;;8.44;100.00;101663.72;5056758;28;20005;-86
2021/09/26 04:14:00;;;;;;;22.33;4.80;;;;;;;8.31;100.00;101650.78;5020814;28;20033;-86
2021/09/26 04:16:28;;;;;;;25.10;4.63;;;;;;;8.24;100.00;101644.34;5037797;28;20049;-86
2021/09/26 04:18:54;;;;;;;27.42;5.28;;;;;;;8.13;100.00;101628.59;5026066;28;20022;-87
2021/09/26 04:21:20;;;;;;;28.88;4.78;;;;;;;8.34;100.00;101658.47;5040407;28;20063;-86
2021/09/26 04:23:47;;;;;;;28.00;5.28;;;;;;;8.65;100.00;101708.88;5057383;28;20025;-86
2021/09/26 04:26:13;;;;;;;26.90;4.97;;;;;;;8.67;100.00;101704.19;5040127;28;20022;-86
2021/09/26 04:28:39;;;;;;;31.20;4.95;;;;;;;8.41;100.00;101664.91;5022264;28;20025;-86
2021/09/26 04:31:05;;;;;;;27.73;5.10;;;;;;;8.18;100.00;101629.78;5062057;28;20027;-85
2021/09/26 04:33:31;;;;;;;31.33;5.05;;;;;;;8.33;100.00;101654.09;5046367;28;20036;-84
2021/09/26 04:35:57;;;;;;;22.15;4.68;;;;;;;8.56;100.00;101691.09;5053052;28;20033;-81
2021/09/26 04:38:23;;;;;;;25.42;4.68;;;;;;;8.36;100.00;101664.50;5044323;28;20029;-83
2021/09/26 04:40:48;;;;;;;28.50;4.88;;;;;;;8.51;100.00;101682.69;5039085;28;20029;-81
2021/09/26 04:43:14;;;;;;;23.73;5.25;;;;;;;8.28;100.00;101656.47;5024397;28;20026;-82
2021/09/26 04:45:39;;;;;;;26.80;5.32;;;;;;;8.37;100.00;101674.22;5036849;28;20040;-81
2021/09/26 04:48:05;;;;;;;23.25;4.65;;;;;;;8.25;100.00;101651.41;5019913;28;20061;-82
2021/09/26 04:50:31;;;;;;;25.67;4.80;;;;;;;8.41;100.00;101689.03;5036986;28;20048;-83
2021/09/26 04:52:57;;;;;;;30.95;5.47;;;;;;;8.42;100.00;101695.25;5018107;28;20443;-82
2021/09/26 04:55:26;;;;;;;23.10;4.47;;;;;;;8.12;100.00;101640.31;5018715;28;20036;-81
2021/09/26 04:57:54;;;;;;;25.55;4.28;;;;;;;8.23;100.00;101664.13;5031215;28;20383;-82
2021/09/26 05:00:20;;;;;;;31.63;4.85;;;;;;;8.27;100.00;101670.84;5032148;28;20030;-81
2021/09/26 05:02:46;;;;;;;26.92;4.22;;;;;;;8.51;100.00;101714.88;5036243;28;20041;-82
2021/09/26 05:05:11;;;;;;;26.55;4.38;;;;;;;8.31;100.00;101682.09;5037533;28;20021;-83
2021/09/26 05:07:37;;;;;;;32.17;4.90;;;;;;;8.47;100.00;101707.13;5026741;28;20038;-84
2021/09/26 05:10:04;;;;;;;19.08;4.70;;;;;;;8.29;100.00;101679.59;5040103;28;20056;-83
2021/09/26 05:12:29;;;;;;;23.10;4.38;;;;;;;8.31;100.00;101690.13;5045481;28;20055;-83
2021/09/26 05:15:01;;;;;;;23.77;4.63;;;;;;;8.26;100.00;101669.19;5027396;28;20120;-84
2021/09/26 05:17:26;;;;;;;27.08;4.75;;;;;;;8.55;100.00;101725.13;5031155;28;20033;-83
2021/09/26 05:19:52;;;;;;;21.92;4.43;;;;;;;8.63;100.00;101730.50;5043517;28;20029;-84
2021/09/26 05:22:17;;;;;;;23.95;4.38;;;;;;;8.60;100.00;101716.56;5011828;28;20022;-83
2021/09/26 05:24:42;;;;;;;22.38;4.63;;;;;;;8.68;100.00;101730.03;5040103;28;20036;-83
2021/09/26 05:27:08;;;;;;;19.23;4.13;;;;;;;8.68;100.00;101730.84;5030394;28;20021;-84
2021/09/26 05:29:33;;;;;;;23.85;4.40;;;;;;;8.66;100.00;101737.38;5048114;28;20044;-84
2021/09/26 05:31:59;;;;;;;29.02;4.82;;;;;;;8.69;100.00;101739.75;5019994;28;20490;-84
2021/09/26 05:34:26;;;;;;;27.35;4.43;;;;;;;8.75;100.00;101736.41;5048941;28;20057;-85
2021/09/26 05:36:52;;;;;;;22.88;4.32;;;;;;;8.80;100.00;101742.09;5032950;28;20026;-83
2021/09/26 05:39:18;;;;;;;25.42;4.40;;;;;;;8.86;100.00;101738.78;5019018;28;20026;-85
2021/09/26 05:41:44;;;;;;;22.08;4.07;;;;;;;8.93;100.00;101736.25;5018571;28;20029;-84
2021/09/26 05:44:09;;;;;;;20.83;4.25;;;;;;;9.01;100.00;101743.50;5008862;28;20109;-85
2021/09/26 05:46:35;;;;;;;25.08;4.10;;;;;;;9.06;100.00;101750.03;5051037;28;20059;-84
2021/09/26 05:49:00;;;;;;;20.77;4.32;;;;;;;9.11;100.00;101752.25;5050387;28;20033;-84
2021/09/26 05:51:26;;;;;;;19.92;4.28;;;;;;;9.20;100.00;101759.28;5049533;28;20395;-84
2021/09/26 05:53:51;;;;;;;24.05;4.47;;;;;;;9.26;100.00;101753.25;5014174;28;20049;-84
2021/09/26 05:56:17;;;;;;;19.25;4.05;;;;;;;9.35;100.00;101754.94;5032913;28;20046;-84
2021/09/26 05:58:42;;;;;;;27.40;5.65;;;;;;;9.43;100.00;101750.56;5032265;28;20455;-84
2021/09/26 06:01:07;;;;;;;20.30;4.35;;;;;;;9.53;100.00;101756.59;5033712;28;20049;-83
2021/09/26 06:03:33;;;;;;;19.27;5.00;;;;;;;9.62;100.00;101760.97;5034089;28;20061;-84
2021/09/26 06:05:58;;;;;;;23.05;4.20;;;;;;;9.70;100.00;101763.66;5033734;28;20026;-84
2021/09/26 06:08:26;;;;;;;22.27;3.90;;;;;;;9.77;100.00;101759.28;5033577;28;20045;-85
2021/09/26 06:10:53;;;;;;;19.20;4.50;;;;;;;9.83;100.00;101755.91;5025971;28;20086;-83
2021/09/26 06:13:19;;;;;;;25.50;4.93;;;;;;;9.89;100.00;101754.38;5033347;28;20088;-83
2021/09/26 06:15:44;;;;;;;24.23;4.55;;;;;;;9.99;100.00;101755.00;5033785;28;20018;-86
2021/09/26 06:18:10;;;;;;;17.30;3.88;;;;;;;10.04;100.00;101758.03;5036675;28;20030;-86
2021/09/26 06:20:35;;;;;;;23.90;4.13;;;;;;;10.07;100.00;101751.50;5060389;28;20021;-85
2021/09/26 06:23:01;;;;;;;23.38;4.50;;;;;;;10.07;100.00;101755.00;5035407;28;20036;-84
2021/09/26 06:25:28;;;;;;;23.05;3.78;;;;;;;10.16;100.00;101769.25;5050462;28;20099;-83
2021/09/26 06:27:55;;;;;;;24.80;3.72;;;;;;;10.19;100.00;101766.22;5032673;28;20064;-83
2021/09/26 06:30:20;;;;;;;24.42;3.90;;;;;;;10.21;100.00;101764.22;5034552;28;20033;-83
2021/09/26 06:32:46;;;;;;;18.75;3.30;;;;;;;10.28;100.00;101775.16;5026817;28;20100;-83
2021/09/26 06:35:11;;;;;;;19.70;3.83;;;;;;;10.38;100.00;101769.56;5047596;28;20089;-83
2021/09/26 06:37:36;;;;;;;15.27;3.75;;;;;;;10.51;100.00;101775.22;5018663;28;20045;-83
2021/09/26 06:40:03;;;;;;;21.42;3.72;;;;;;;10.66;100.00;101780.69;5020832;28;20077;-84
2021/09/26 06:42:29;;;;;;;24.30;3.65;;;;;;;10.72;100.00;101783.53;5032118;28;20025;-83
2021/09/26 06:44:54;;;;;;;18.73;3.30;;;;;;;10.75;100.00;101771.56;5047641;28;20105;-85
2021/09/26 06:47:20;;;;;;;22.25;3.67;;;;;;;10.86;100.00;101781.09;5012730;28;20048;-83
2021/09/26 06:49:45;;;;;;;17.77;3.13;;;;;;;10.91;100.00;101781.41;5005596;28;20051;-86
2021/09/26 06:52:13;;;;;;;20.98;3.50;;;;;;;11.02;100.00;101789.91;5041037;28;20017;-86
2021/09/26 06:54:38;;;;;;;19.52;3.35;;;;;;;11.18;100.00;101783.59;5041345;28;20463;-85
2021/09/26 06:57:05;;;;;;;22.80;3.50;;;;;;;11.37;100.00;101792.22;5039912;28;20046;-85
2021/09/26 06:59:31;;;;;;;20.02;3.60;;;;;;;11.44;100.00;101793.16;5004856;28;20045;-85
2021/09/26 07:01:56;;;;;;;20.95;3.92;;;;;;;11.55;100.00;101798.13;5003167;28;20026;-86
2021/09/26 07:04:21;;;;;;;14.98;2.72;;;;;;;11.60;100.00;101787.66;5037088;28;20064;-86
2021/09/26 07:06:47;;;;;;;16.83;3.00;;;;;;;11.71;100.00;101794.47;5040081;28;20033;-85
2021/09/26 07:09:12;;;;;;;15.98;3.22;;;;;;;11.86;100.00;101794.53;5042875;28;20021;-88
2021/09/26 07:11:37;;;;;;;16.58;3.47;;;;;;;12.10;100.00;101801.53;5060313;28;20034;-87
2021/09/26 07:14:03;;;;;;;19.67;2.95;;;;;;;12.26;100.00;101805.94;5042334;28;20019;-87
2021/09/26 07:16:28;;;;;;;18.08;2.60;;;;;;;12.36;100.00;101807.31;5025237;28;20029;-87
2021/09/26 07:18:54;;;;;;;18.52;2.95;;;;;;;12.56;100.00;101810.28;5041805;28;20064;-87
2021/09/26 07:21:19;;;;;;;17.17;2.75;;;;;;;12.76;100.00;101805.13;5020808;28;20022;-86
2021/09/26 07:23:45;;;;;;;15.73;3.00;;;;;;;12.97;100.00;101804.34;5055922;28;20017;-87
2021/09/26 07:26:11;;;;;;;19.05;2.65;;;;;;;13.12;100.00;101809.72;5043035;28;20033;-87
2021/09/26 07:28:37;;;;;;;15.38;2.80;;;;;;;13.16;100.00;101809.13;5040451;28;20033;-86
2021/09/26 07:31:03;;;;;;;11.38;2.22;;;;;;;13.22;100.00;101826.44;5006617;28;20010;-86
2021/09/26 07:33:28;;;;;;;15.60;2.28;;;;;;;12.99;100.00;101782.53;5072440;23;20115;-84
2021/09/26 07:35:54;;;;;;;15.32;2.70;;;;;;;12.96;100.00;101775.66;5073138;28;20025;-83
2021/09/26 07:38:20;;;;;;;18.02;2.67;;;;;;;13.05;100.00;101782.63;5055596;28;20035;-85
2021/09/26 07:40:46;;;;;;;28.17;2.70;;;;;;;13.06;100.00;101794.25;5073119;28;20084;-83
2021/09/26 07:43:12;;;;;;;13.35;2.28;;;;;;;13.31;100.00;101816.38;5074427;28;20001;-85
2021/09/26 07:45:38;;;;;;;15.20;2.33;;;;;;;13.50;100.00;101834.66;5071692;28;20017;-83
2021/09/26 07:48:04;;;;;;;17.02;3.25;;;;;;;13.25;100.00;101784.72;5072066;28;20024;-84
2021/09/26 07:50:31;;;;;;;15.88;2.63;;;;;;;13.20;100.00;101784.41;5072093;28;20063;-83
2021/09/26 07:52:57;;;;;;;20.70;2.67;;;;;;;13.57;100.00;101832.84;5072077;28;20028;-85
2021/09/26 07:55:22;;;;;;;15.30;2.45;;;;;;;13.60;100.00;101843.28;5060046;28;20029;-83
2021/09/26 07:57:48;;;;;;;14.75;2.55;;;;;;;13.67;100.00;101848.75;5073362;28;20033;-81
2021/09/26 08:00:15;;;;;;;17.73;2.58;;;;;;;13.69;100.00;101853.97;5067949;28;20021;-82
2021/09/26 08:02:41;;;;;;;18.67;2.40;;;;;;;13.74;100.00;101846.09;5072027;28;20084;-84
2021/09/26 08:05:08;;;;;;;15.07;2.33;;;;;;;13.77;100.00;101856.53;5067745;28;20059;-81
2021/09/26 08:07:33;;;;;;;16.08;2.20;;;;;;;13.84;100.00;101852.00;5048512;28;20055;-82
2021/09/26 08:09:59;;;;;;;20.98;2.42;;;;;;;13.80;100.00;101843.44;5057910;28;20096;-84
2021/09/26 08:12:25;;;;;;;13.45;2.75;;;;;;;13.85;100.00;101857.25;5075928;28;20052;-81
2021/09/26 08:14:51;;;;;;;15.63;2.30;;;;;;;13.48;100.00;101808.88;5129504;22;20052;-75
2021/09/26 08:17:17;;;;;;;17.67;2.33;;;;;;;13.81;100.00;101866.78;5041168;28;20013;-83
2021/09/26 08:19:43;;;;;;;15.27;2.10;;;;;;;13.66;100.00;101833.56;5025931;28;20045;-79
2021/09/26 08:22:10;;;;;;;22.77;2.20;;;;;;;13.37;100.00;101777.75;5003700;28;20033;-85
2021/09/26 08:24:36;;;;;;;16.05;2.65;;;;;;;13.65;100.00;101807.56;5038537;28;20025;-85
2021/09/26 08:27:04;;;;;;;15.10;2.22;;;;;;;14.03;100.00;101864.88;5006798;28;20030;-84
2021/09/26 08:29:30;;;;;;;16.92;2.00;;;;;;;13.46;100.00;101779.28;5001652;28;20343;-84
2021/09/26 08:31:56;;;;;;;16.40;2.38;;;;;;;13.79;100.00;101814.75;5033358;28;20018;-83
2021/09/26 08:34:22;;;;;;;19.38;3.17;;;;;;;14.14;100.00;101874.34;5032152;28;20041;-81
2021/09/26 08:36:48;;;;;;;16.70;2.35;;;;;;;14.15;100.00;101867.06;5027500;28;20029;-82
2021/09/26 08:39:14;;;;;;;14.38;2.13;;;;;;;14.17;100.00;101862.28;5018194;28;20105;-84
